Time;durP1;ratioP1;P1;durP2;ratioP2;P2;SDS_P1;SDS_P2;PMS_P1;PMS_P2;Temp;Humidity;BMP_temperature;BMP_pressure;BME280_temperature;BME280_humidity;BME280_pressure;Samples;Min_cycle;Max_cycle;Signal;HPM_P1;HPM_P2
2023/11/17 00:02:22;;;;;;;7.03;4.63;;;;;;;7.87;100.00;99951.41;1431510;91;22657;-82
2023/11/17 00:04:48;;;;;;;8.40;3.90;;;;;;;7.89;100.00;99950.80;1398400;93;21490;-81
2023/11/17 00:07:14;;;;;;;9.87;4.30;;;;;;;7.91;100.00;99948.83;1434348;90;21352;-81
2023/11/17 00:09:41;;;;;;;11.47;4.40;;;;;;;7.93;100.00;99941.62;1449125;90;21574;-81
2023/11/17 00:12:08;;;;;;;9.10;4.50;;;;;;;7.94;100.00;99939.34;1446200;90;21405;-81
2023/11/17 00:14:35;;;;;;;8.70;5.10;;;;;;;7.95;100.00;99946.27;1443465;89;22299;-81
2023/11/17 00:17:01;;;;;;;8.27;4.40;;;;;;;7.95;100.00;99941.00;1460209;90;21449;-81
2023/11/17 00:19:28;;;;;;;11.97;5.00;;;;;;;7.93;100.00;99923.17;1451219;90;21375;-81
2023/11/17 00:21:54;;;;;;;8.47;4.70;;;;;;;7.91;100.00;99920.70;1454527;89;22375;-81
2023/11/17 00:24:21;;;;;;;7.60;4.70;;;;;;;7.89;100.00;99925.27;1443092;90;21383;-81
2023/11/17 00:26:47;;;;;;;9.67;4.83;;;;;;;7.87;100.00;99923.25;1450293;90;21405;-80
2023/11/17 00:29:15;;;;;;;8.40;5.17;;;;;;;7.87;100.00;99932.97;1450587;90;21537;-82
2023/11/17 00:31:41;;;;;;;6.93;4.10;;;;;;;7.86;100.00;99933.45;1449786;90;21575;-81
2023/11/17 00:34:08;;;;;;;9.47;4.47;;;;;;;7.87;100.00;99934.28;1448378;90;21435;-80
2023/11/17 00:36:34;;;;;;;5.47;3.80;;;;;;;7.87;100.00;99931.66;1455444;90;21427;-80
2023/11/17 00:39:01;;;;;;;6.73;3.63;;;;;;;7.89;100.00;99923.95;1451258;90;21398;-80
2023/11/17 00:41:28;;;;;;;9.37;4.67;;;;;;;7.92;100.00;99937.33;1447410;90;21346;-80
2023/11/17 00:43:55;;;;;;;8.63;4.23;;;;;;;7.94;100.00;99927.95;1443754;89;21405;-79
2023/11/17 00:46:22;;;;;;;11.13;4.70;;;;;;;7.93;100.00;99936.84;1450221;90;21464;-80
2023/11/17 00:48:48;;;;;;;9.93;4.67;;;;;;;7.93;100.00;99937.66;1449137;90;21382;-79
2023/11/17 00:51:18;;;;;;;6.57;4.20;;;;;;;7.89;100.00;99931.86;1445724;90;21530;-80
2023/11/17 00:53:42;;;;;;;9.43;4.30;;;;;;;7.89;100.00;99921.31;1446263;89;22572;-80
2023/11/17 00:56:10;;;;;;;8.93;3.83;;;;;;;7.91;100.00;99913.25;1458545;90;22351;-80
2023/11/17 00:58:37;;;;;;;10.20;3.83;;;;;;;7.91;100.00;99901.39;1454356;90;21523;-79
2023/11/17 01:01:04;;;;;;;5.53;4.03;;;;;;;7.91;100.00;99896.98;1454583;90;21412;-81
2023/11/17 01:03:31;;;;;;;6.47;3.67;;;;;;;7.91;100.00;99893.03;1451055;90;21582;-80
2023/11/17 01:05:57;;;;;;;8.20;3.60;;;;;;;7.93;100.00;99881.02;1449885;90;21376;-80
2023/11/17 01:08:23;;;;;;;6.30;3.60;;;;;;;7.94;100.00;99873.47;1453485;90;22337;-80
2023/11/17 01:10:50;;;;;;;6.70;3.43;;;;;;;7.94;100.00;99879.20;1448430;90;21576;-80
2023/11/17 01:13:16;;;;;;;5.47;3.73;;;;;;;7.91;100.00;99865.36;1446583;90;21495;-80
2023/11/17 01:15:44;;;;;;;8.40;3.70;;;;;;;7.90;100.00;99875.54;1449404;90;21412;-80
2023/11/17 01:18:10;;;;;;;6.63;3.97;;;;;;;7.90;100.00;99886.57;1449985;90;21582;-80
2023/11/17 01:20:42;;;;;;;4.80;3.43;;;;;;;7.88;100.00;99877.51;1427120;90;22359;-80
2023/11/17 01:23:05;;;;;;;6.43;3.33;;;;;;;7.89;100.00;99876.52;1451579;89;21464;-80
2023/11/17 01:25:32;;;;;;;9.83;3.73;;;;;;;7.91;100.00;99871.09;1457837;89;21567;-80
2023/11/17 01:27:59;;;;;;;5.30;2.77;;;;;;;7.94;100.00;99862.08;1456066;90;22299;-82
2023/11/17 01:30:25;;;;;;;11.33;3.57;;;;;;;7.97;100.00;99849.47;1454656;89;21567;-82
2023/11/17 01:32:53;;;;;;;5.60;3.17;;;;;;;7.96;100.00;99833.29;1452874;90;21376;-83
2023/11/17 01:35:19;;;;;;;9.93;3.97;;;;;;;7.95;100.00;99834.77;1449652;89;22330;-82
2023/11/17 01:37:46;;;;;;;10.80;4.23;;;;;;;7.91;100.00;99822.34;1455643;90;21272;-83
2023/11/17 01:40:15;;;;;;;4.70;3.20;;;;;;;7.89;100.00;99821.69;1451601;90;21367;-81
2023/11/17 01:42:42;;;;;;;6.90;4.30;;;;;;;7.85;100.00;99812.39;1454421;89;21465;-80
2023/11/17 01:45:09;;;;;;;5.17;3.07;;;;;;;7.80;100.00;99808.89;1455848;89;21531;-81
2023/11/17 01:47:39;;;;;;;8.70;3.37;;;;;;;7.72;100.00;99786.89;1448270;90;21332;-82
2023/11/17 01:50:12;;;;;;;7.08;3.15;;;;;;;7.65;100.00;99768.17;1459472;89;21603;-79
2023/11/17 01:52:40;;;;;;;6.83;3.47;;;;;;;7.60;100.00;99747.56;1437716;90;21317;-82
2023/11/17 01:55:11;;;;;;;5.80;3.73;;;;;;;7.59;100.00;99737.16;1442848;90;21557;-81
2023/11/17 01:57:38;;;;;;;9.78;3.95;;;;;;;7.53;100.00;99734.61;1453026;89;21479;-81
2023/11/17 02:00:13;;;;;;;5.93;3.50;;;;;;;7.56;100.00;99738.27;1449591;90;21452;-82
2023/11/17 02:02:38;;;;;;;4.50;2.92;;;;;;;7.56;100.00;99734.81;1453234;89;21501;-82
2023/11/17 02:05:07;;;;;;;3.63;2.70;;;;;;;7.56;100.00;99740.08;1443297;90;22403;-81
2023/11/17 02:07:39;;;;;;;6.27;3.97;;;;;;;7.59;100.00;99736.66;1451847;89;21353;-81
2023/11/17 02:10:14;;;;;;;6.27;2.93;;;;;;;7.59;100.00;99730.58;1457368;90;21346;-82
2023/11/17 02:12:52;;;;;;;6.20;3.20;;;;;;;7.59;100.00;99721.36;1451932;89;21427;-82
2023/11/17 02:15:24;;;;;;;4.30;2.63;;;;;;;7.60;100.00;99723.86;1448613;89;21427;-82
2023/11/17 02:17:52;;;;;;;5.90;3.60;;;;;;;7.62;100.00;99725.02;1447535;90;21442;-82
2023/11/17 02:20:25;;;;;;;4.33;2.57;;;;;;;7.64;100.00;99719.13;1448275;89;21338;-81
2023/11/17 02:22:54;;;;;;;4.80;2.70;;;;;;;7.69;100.00;99709.81;1448959;89;21477;-82
2023/11/17 02:25:40;;;;;;;7.40;2.30;;;;;;;7.72;100.00;99702.10;1452232;90;21471;-81
2023/11/17 02:28:30;;;;;;;9.57;3.67;;;;;;;7.74;100.00;99711.16;1460609;89;21375;-81
2023/11/17 02:30:56;;;;;;;6.00;2.70;;;;;;;7.76;100.00;99711.36;1446421;89;22617;-81
2023/11/17 02:33:26;;;;;;;3.40;2.20;;;;;;;7.81;100.00;99706.98;1448970;90;21339;-82
2023/11/17 02:35:56;;;;;;;3.95;2.50;;;;;;;7.79;100.00;99701.02;1447912;90;21434;-81
2023/11/17 02:38:23;;;;;;;6.03;2.97;;;;;;;7.76;100.00;99701.31;1456004;89;21464;-80
2023/11/17 02:40:55;;;;;;;3.30;2.53;;;;;;;7.76;100.00;99705.27;1458152;90;21326;-80
2023/11/17 02:43:17;;;;;;;12.97;3.40;;;;;;;7.74;100.00;99702.80;1459996;89;21424;-80
2023/11/17 02:45:45;;;;;;;7.40;3.63;;;;;;;7.72;100.00;99694.20;1452356;90;22307;-80
2023/11/17 02:48:11;;;;;;;13.63;5.60;;;;;;;7.73;100.00;99695.02;1448312;90;21405;-80
2023/11/17 02:51:03;;;;;;;18.13;6.47;;;;;;;7.72;100.00;99693.38;1450115;90;21611;-80
2023/11/17 02:53:23;;;;;;;;;;;;;;;7.72;100.00;99697.33;1450637;90;21582;-80
2023/11/17 02:55:47;;;;;;;12.83;6.40;;;;;;;7.71;100.00;99695.66;1457846;90;20862;-80
2023/11/17 02:58:16;;;;;;;12.70;5.73;;;;;;;7.72;100.00;99700.78;1449657;89;21376;-80
2023/11/17 03:00:47;;;;;;;9.37;4.37;;;;;;;7.67;100.00;99708.30;1451007;90;21309;-79
2023/11/17 03:03:13;;;;;;;8.55;4.42;;;;;;;7.67;100.00;99716.20;1467401;89;22233;-80
2023/11/17 03:05:39;;;;;;;5.20;3.43;;;;;;;7.69;100.00;99696.64;1446983;90;21266;-80
2023/11/17 03:08:07;;;;;;;4.13;2.50;;;;;;;7.73;100.00;99680.54;1458728;90;21353;-79
2023/11/17 03:10:34;;;;;;;6.10;3.00;;;;;;;7.71;100.00;99660.95;1451418;90;22527;-80
2023/11/17 03:13:00;;;;;;;6.13;3.17;;;;;;;7.65;100.00;99645.25;1450450;90;21383;-85
2023/11/17 03:15:28;;;;;;;3.53;2.97;;;;;;;7.66;100.00;99656.11;1451654;90;21359;-85
2023/11/17 03:17:54;;;;;;;8.87;3.60;;;;;;;7.69;100.00;99671.62;1450757;90;21578;-83
2023/11/17 03:20:20;;;;;;;4.13;3.30;;;;;;;7.71;100.00;99685.97;1455540;89;21390;-83
2023/11/17 03:22:47;;;;;;;5.90;3.80;;;;;;;7.72;100.00;99686.30;1455177;90;21585;-83
2023/11/17 03:25:15;;;;;;;3.90;2.63;;;;;;;7.73;100.00;99687.13;1444381;90;21323;-83
2023/11/17 03:27:50;;;;;;;5.93;3.40;;;;;;;7.68;100.00;99684.45;1455502;90;21353;-83
2023/11/17 03:30:17;;;;;;;4.90;3.50;;;;;;;7.72;100.00;99682.84;1453196;89;21384;-83
2023/11/17 03:32:43;;;;;;;8.47;3.03;;;;;;;7.73;100.00;99677.41;1457894;90;21485;-83
2023/11/17 03:35:09;;;;;;;5.27;3.23;;;;;;;7.76;100.00;99661.31;1446975;90;21354;-83
2023/11/17 03:37:35;;;;;;;4.70;3.30;;;;;;;7.77;100.00;99658.18;1455746;90;22271;-84
2023/11/17 03:40:12;;;;;;;5.13;3.43;;;;;;;7.73;100.00;99657.66;1448367;90;21302;-84
2023/11/17 03:42:35;;;;;;;8.37;3.63;;;;;;;7.67;100.00;99652.48;1455387;89;21398;-84
2023/11/17 03:45:08;;;;;;;7.43;3.10;;;;;;;7.66;100.00;99653.48;1457377;90;22433;-81
2023/11/17 03:47:31;;;;;;;7.70;3.45;;;;;;;7.63;100.00;99643.23;1465340;89;21907;-80
2023/11/17 03:49:58;;;;;;;6.67;3.90;;;;;;;7.62;100.00;99638.96;1450472;90;22455;-81
2023/11/17 03:52:26;;;;;;;5.37;3.87;;;;;;;7.60;100.00;99643.53;1455922;89;21524;-80
2023/11/17 03:54:56;;;;;;;6.93;3.93;;;;;;;7.59;100.00;99643.17;1450766;90;21405;-79
2023/11/17 03:57:20;;;;;;;5.67;4.40;;;;;;;7.59;100.00;99644.98;1448466;89;21478;-80
2023/11/17 03:59:46;;;;;;;5.67;4.53;;;;;;;7.58;100.00;99642.84;1454742;90;22504;-81
2023/11/17 04:02:13;;;;;;;6.53;4.20;;;;;;;7.57;100.00;99639.88;1454653;89;21411;-81
2023/11/17 04:04:39;;;;;;;8.93;4.93;;;;;;;7.54;100.00;99636.23;1442118;90;21398;-78
2023/11/17 04:07:07;;;;;;;9.20;5.47;;;;;;;7.48;100.00;99634.19;1454475;90;21294;-80
2023/11/17 04:09:33;;;;;;;10.07;5.90;;;;;;;7.42;100.00;99628.17;1446572;90;21354;-81
2023/11/17 04:12:02;;;;;;;9.03;5.37;;;;;;;7.41;100.00;99623.89;1446896;90;21537;-81
2023/11/17 04:14:37;;;;;;;6.73;4.67;;;;;;;7.41;100.00;99614.18;1454234;90;21397;-80
2023/11/17 04:17:04;;;;;;;7.37;4.57;;;;;;;7.39;100.00;99610.89;1456537;89;21517;-79
2023/11/17 04:19:31;;;;;;;7.53;4.33;;;;;;;7.37;100.00;99607.56;1456087;89;21523;-80
2023/11/17 04:21:57;;;;;;;8.63;4.80;;;;;;;7.38;100.00;99603.13;1454756;90;21456;-80
2023/11/17 04:24:23;;;;;;;8.40;4.63;;;;;;;7.37;100.00;99598.35;1449392;90;21339;-82
2023/11/17 04:26:49;;;;;;;7.70;4.60;;;;;;;7.38;100.00;99598.68;1452107;90;21552;-82
2023/11/17 04:29:17;;;;;;;10.23;6.10;;;;;;;7.39;100.00;99599.05;1448896;90;21383;-80
2023/11/17 04:31:43;;;;;;;7.93;4.13;;;;;;;7.41;100.00;99601.52;1449477;89;22240;-81
2023/11/17 04:34:13;;;;;;;5.97;4.40;;;;;;;7.35;100.00;99595.52;1450438;90;21435;-81
2023/11/17 04:36:39;;;;;;;7.97;5.07;;;;;;;7.36;100.00;99592.73;1436411;90;22925;-80
2023/11/17 04:39:11;;;;;;;4.67;3.83;;;;;;;7.34;100.00;99593.88;1460602;90;21479;-79
2023/11/17 04:41:36;;;;;;;7.58;4.17;;;;;;;7.33;100.00;99585.12;1448023;89;21427;-80
2023/11/17 04:44:03;;;;;;;6.17;4.30;;;;;;;7.33;100.00;99573.77;1459408;90;21448;-80
2023/11/17 04:46:30;;;;;;;7.60;4.17;;;;;;;7.34;100.00;99575.45;1455180;90;21390;-80
2023/11/17 04:48:56;;;;;;;6.80;4.10;;;;;;;7.33;100.00;99565.87;1461632;89;22493;-80
2023/11/17 04:51:22;;;;;;;5.83;3.77;;;;;;;7.34;100.00;99568.87;1458814;90;21369;-80
2023/11/17 04:53:48;;;;;;;8.17;4.60;;;;;;;7.36;100.00;99565.58;1448002;90;21545;-81
2023/11/17 04:56:17;;;;;;;5.97;3.83;;;;;;;7.35;100.00;99553.41;1454224;89;21398;-80
2023/11/17 04:58:44;;;;;;;5.67;3.80;;;;;;;7.37;100.00;99559.36;1452188;89;21353;-80
2023/11/17 05:01:10;;;;;;;4.90;3.70;;;;;;;7.38;100.00;99553.11;1453875;90;22082;-83
2023/11/17 05:03:37;;;;;;;7.80;4.10;;;;;;;7.40;100.00;99558.56;1449930;90;21405;-84
2023/11/17 05:06:06;;;;;;;7.10;3.80;;;;;;;7.37;100.00;99550.14;1453059;90;21433;-85
2023/11/17 05:08:35;;;;;;;5.33;3.90;;;;;;;7.37;100.00;99548.83;1456092;89;21478;-82
2023/11/17 05:11:09;;;;;;;5.97;3.97;;;;;;;7.36;100.00;99553.73;1459623;90;21376;-83
2023/11/17 05:13:35;;;;;;;12.07;5.47;;;;;;;7.36;100.00;99549.78;1454342;90;22256;-85
2023/11/17 05:16:03;;;;;;;7.73;5.27;;;;;;;7.37;100.00;99548.34;1452778;89;21331;-84
2023/11/17 05:18:29;;;;;;;8.10;4.60;;;;;;;7.38;100.00;99549.16;1454712;89;21390;-81
2023/11/17 05:20:55;;;;;;;6.13;4.13;;;;;;;7.41;100.00;99539.64;1449325;89;21442;-82
2023/11/17 05:23:22;;;;;;;5.17;3.90;;;;;;;7.42;100.00;99538.66;1454857;90;21427;-81
2023/11/17 05:25:48;;;;;;;7.80;3.60;;;;;;;7.39;100.00;99535.01;1445543;90;22594;-83
2023/11/17 05:28:14;;;;;;;6.27;4.27;;;;;;;7.41;100.00;99534.38;1455786;90;21383;-82
2023/11/17 05:30:41;;;;;;;8.00;4.73;;;;;;;7.41;100.00;99534.38;1444522;90;21353;-82
2023/11/17 05:33:07;;;;;;;5.73;4.13;;;;;;;7.39;100.00;99527.11;1447344;90;21420;-82
2023/11/17 05:35:40;;;;;;;4.60;3.83;;;;;;;7.39;100.00;99524.48;1450353;90;21479;-82
2023/11/17 05:38:02;;;;;;;6.07;3.87;;;;;;;7.37;100.00;99518.06;1448348;89;21501;-82
2023/11/17 05:40:33;;;;;;;5.87;3.87;;;;;;;7.38;100.00;99511.81;1442982;90;21589;-82
2023/11/17 05:42:57;;;;;;;9.07;4.70;;;;;;;7.38;100.00;99514.94;1452665;89;21404;-82
2023/11/17 05:45:23;;;;;;;8.57;4.13;;;;;;;7.39;100.00;99512.17;1453247;90;21361;-81
2023/11/17 05:47:49;;;;;;;6.17;4.50;;;;;;;7.39;100.00;99522.70;1452983;89;21361;-82
2023/11/17 05:50:16;;;;;;;5.90;3.80;;;;;;;7.42;100.00;99509.70;1435788;90;21613;-80
2023/11/17 05:52:43;;;;;;;21.50;5.03;;;;;;;7.41;100.00;99505.42;1452465;90;21652;-80
2023/11/17 05:55:11;;;;;;;7.97;4.23;;;;;;;7.39;100.00;99504.73;1443808;90;21369;-79
2023/11/17 05:57:42;;;;;;;6.53;4.07;;;;;;;7.39;100.00;99508.69;1450193;90;21368;-84
2023/11/17 06:00:13;;;;;;;9.90;4.62;;;;;;;7.35;100.00;99515.23;1456839;90;21605;-80
2023/11/17 06:02:40;;;;;;;7.10;4.30;;;;;;;7.34;100.00;99506.52;1458231;89;21472;-85
2023/11/17 06:05:08;;;;;;;6.53;4.53;;;;;;;7.36;100.00;99515.56;1451737;90;21383;-82
2023/11/17 06:07:35;;;;;;;5.73;4.10;;;;;;;7.37;100.00;99506.22;1449614;89;21666;-83
2023/11/17 06:10:01;;;;;;;9.87;5.10;;;;;;;7.36;100.00;99501.91;1457060;90;22295;-83
2023/11/17 06:12:27;;;;;;;7.87;4.73;;;;;;;7.40;100.00;99506.41;1455588;90;21347;-81
2023/11/17 06:14:53;;;;;;;5.47;4.40;;;;;;;7.42;100.00;99503.97;1456805;90;22462;-81
2023/11/17 06:17:19;;;;;;;5.70;4.37;;;;;;;7.45;100.00;99501.50;1449872;90;21390;-80
2023/11/17 06:19:46;;;;;;;6.17;4.20;;;;;;;7.48;100.00;99500.38;1449850;90;21382;-81
2023/11/17 06:22:12;;;;;;;11.50;4.70;;;;;;;7.52;100.00;99495.16;1453624;90;21449;-82
2023/11/17 06:24:38;;;;;;;9.77;5.70;;;;;;;7.56;100.00;99495.19;1445364;90;22513;-81
2023/11/17 06:27:07;;;;;;;9.30;4.67;;;;;;;7.56;100.00;99495.19;1458300;90;21258;-82
2023/11/17 06:29:32;;;;;;;8.60;5.37;;;;;;;7.56;100.00;99500.45;1454199;90;21478;-81
2023/11/17 06:31:58;;;;;;;8.00;5.10;;;;;;;7.57;100.00;99508.22;1459480;89;21450;-81
2023/11/17 06:34:25;;;;;;;8.40;4.70;;;;;;;7.56;100.00;99508.36;1449775;90;21538;-79
2023/11/17 06:36:51;;;;;;;7.23;4.93;;;;;;;7.56;100.00;99502.59;1451227;90;22346;-79
2023/11/17 06:39:18;;;;;;;8.80;5.03;;;;;;;7.56;100.00;99503.91;1458259;89;21405;-80
2023/11/17 06:41:50;;;;;;;7.30;4.93;;;;;;;7.58;100.00;99507.23;1449608;89;22374;-80
2023/11/17 06:44:19;;;;;;;7.80;4.67;;;;;;;7.60;100.00;99513.67;1448215;90;21383;-80
2023/11/17 06:46:50;;;;;;;10.33;5.10;;;;;;;7.64;100.00;99522.42;1444955;90;21397;-80
2023/11/17 06:49:24;;;;;;;8.00;4.77;;;;;;;7.68;100.00;99515.04;1461018;89;21317;-82
2023/11/17 06:51:49;;;;;;;9.98;6.03;;;;;;;7.71;100.00;99521.35;1456825;90;21615;-81
2023/11/17 06:54:18;;;;;;;6.80;4.93;;;;;;;7.73;100.00;99510.65;1450746;90;21383;-80
2023/11/17 06:56:46;;;;;;;9.20;6.20;;;;;;;7.75;100.00;99511.33;1454615;90;22211;-81
2023/11/17 06:59:20;;;;;;;11.87;6.27;;;;;;;7.73;100.00;99502.75;1452034;90;21822;-82
2023/11/17 07:01:50;;;;;;;16.50;7.97;;;;;;;7.73;100.00;99498.80;1455460;90;22449;-82
2023/11/17 07:04:17;;;;;;;15.93;7.00;;;;;;;7.73;100.00;99502.75;1447601;90;21420;-82
2023/11/17 07:06:44;;;;;;;11.67;6.57;;;;;;;7.77;100.00;99496.19;1455476;90;21412;-81
2023/11/17 07:09:17;;;;;;;12.83;6.90;;;;;;;7.83;100.00;99497.73;1444786;89;21531;-83
2023/11/17 07:11:47;;;;;;;9.63;6.03;;;;;;;7.90;100.00;99491.36;1449007;90;21802;-82
2023/11/17 07:14:16;;;;;;;6.80;5.37;;;;;;;7.99;100.00;99489.12;1451373;89;21529;-83
2023/11/17 07:16:42;;;;;;;8.63;5.13;;;;;;;8.05;100.00;99485.04;1454517;89;21426;-81
2023/11/17 07:19:09;;;;;;;19.80;7.60;;;;;;;8.08;100.00;99490.00;1451908;90;21442;-80
2023/11/17 07:21:40;;;;;;;12.63;5.70;;;;;;;8.11;100.00;99498.45;1447610;90;21611;-79
2023/11/17 07:24:07;;;;;;;;;;;;;;;8.13;100.00;99492.52;1452196;89;21627;-78
2023/11/17 07:26:34;;;;;;;9.93;5.67;;;;;;;8.10;100.00;99495.45;1450371;90;20937;-79
2023/11/17 07:29:03;;;;;;;12.93;5.67;;;;;;;8.06;100.00;99490.67;1379068;89;21213;-79
2023/11/17 07:31:37;;;;;;;9.20;5.53;;;;;;;8.06;100.00;99488.86;1381791;90;21294;-80
2023/11/17 07:33:59;;;;;;;6.33;4.77;;;;;;;8.05;100.00;99487.67;1532345;89;21287;-80
2023/11/17 07:36:26;;;;;;;10.27;6.97;;;;;;;8.01;100.00;99491.12;1379946;89;22145;-78
2023/11/17 07:38:52;;;;;;;12.23;6.17;;;;;;;8.01;100.00;99491.12;1379568;89;21332;-80
2023/11/17 07:41:19;;;;;;;8.13;4.90;;;;;;;8.01;100.00;99491.12;1379929;89;21519;-80
2023/11/17 07:43:46;;;;;;;8.47;5.63;;;;;;;8.03;100.00;99498.38;1378363;89;21376;-78
2023/11/17 07:46:13;;;;;;;9.87;5.10;;;;;;;8.03;100.00;99499.70;1385097;89;21465;-80
2023/11/17 07:48:45;;;;;;;5.27;4.43;;;;;;;8.03;100.00;99501.02;1535446;90;21177;-79
2023/11/17 07:51:14;;;;;;;7.37;4.60;;;;;;;8.00;100.00;99503.97;1376082;90;21280;-80
2023/11/17 07:53:41;;;;;;;8.63;4.70;;;;;;;7.95;100.00;99498.32;1376588;89;21250;-79
2023/11/17 07:56:09;;;;;;;9.63;5.70;;;;;;;7.91;100.00;99499.59;1372894;90;21228;-81
2023/11/17 07:58:36;;;;;;;10.70;6.10;;;;;;;7.86;100.00;99499.25;1376871;90;21229;-78
2023/11/17 08:01:03;;;;;;;9.50;5.23;;;;;;;7.87;100.00;99503.52;1378693;90;21236;-79
2023/11/17 08:03:30;;;;;;;10.17;5.77;;;;;;;7.83;100.00;99504.82;1384165;90;21339;-80
2023/11/17 08:06:01;;;;;;;10.80;6.47;;;;;;;7.82;100.00;99507.09;1536051;90;21147;-80
2023/11/17 08:08:26;;;;;;;9.35;4.90;;;;;;;7.81;100.00;99512.04;1375199;89;21309;-80
2023/11/17 08:10:53;;;;;;;8.63;4.87;;;;;;;7.79;100.00;99510.03;1379994;89;21309;-78
2023/11/17 08:13:19;;;;;;;12.40;6.40;;;;;;;7.74;100.00;99509.19;1372464;90;22257;-78
2023/11/17 08:15:48;;;;;;;11.97;4.87;;;;;;;7.72;100.00;99506.37;1380184;89;21265;-79
2023/11/17 08:18:14;;;;;;;6.47;4.83;;;;;;;7.71;100.00;99503.38;1533263;90;22316;-80
2023/11/17 08:20:41;;;;;;;9.27;5.10;;;;;;;7.68;100.00;99496.14;1372917;90;22190;-80
2023/11/17 08:23:09;;;;;;;7.37;4.43;;;;;;;7.67;100.00;99498.42;1384470;90;21525;-80
2023/11/17 08:25:35;;;;;;;6.30;4.57;;;;;;;7.66;100.00;99499.90;1533838;89;21317;-80
2023/11/17 08:28:02;;;;;;;12.90;4.67;;;;;;;7.67;100.00;99498.42;1394237;89;21501;-81
2023/11/17 08:30:28;;;;;;;10.20;4.80;;;;;;;7.71;100.00;99499.43;1457017;89;22211;-81
2023/11/17 08:32:55;;;;;;;9.70;6.27;;;;;;;7.75;100.00;99492.41;1454221;90;21382;-80
2023/11/17 08:35:22;;;;;;;15.77;10.03;;;;;;;7.76;100.00;99482.69;1452755;89;23058;-81
2023/11/17 08:37:52;;;;;;;18.10;12.43;;;;;;;7.77;100.00;99489.59;1451879;90;21390;-80
2023/11/17 08:40:21;;;;;;;17.00;11.53;;;;;;;7.78;100.00;99486.00;1457573;90;21434;-80
2023/11/17 08:42:49;;;;;;;23.83;13.57;;;;;;;7.78;100.00;99482.05;1446261;90;21501;-78
2023/11/17 08:45:15;;;;;;;14.17;9.80;;;;;;;7.80;100.00;99478.78;1436354;90;21367;-81
2023/11/17 08:47:48;;;;;;;10.83;8.50;;;;;;;7.84;100.00;99472.22;1449379;89;21471;-78
2023/11/17 08:50:15;;;;;;;10.13;7.33;;;;;;;7.89;100.00;99471.28;1449254;90;21397;-79
2023/11/17 08:52:44;;;;;;;12.90;6.37;;;;;;;7.89;100.00;99472.09;1444627;89;21375;-80
2023/11/17 08:55:17;;;;;;;12.87;8.80;;;;;;;7.95;100.00;99459.30;1450781;90;21383;-79
2023/11/17 08:57:45;;;;;;;13.30;7.30;;;;;;;7.95;100.00;99456.16;1460768;90;21412;-83
2023/11/17 09:00:14;;;;;;;9.50;6.00;;;;;;;8.00;100.00;99460.95;1452347;90;21287;-80
2023/11/17 09:02:46;;;;;;;10.13;5.73;;;;;;;8.02;100.00;99463.77;1455618;90;21515;-79
2023/11/17 09:05:13;;;;;;;8.90;5.33;;;;;;;8.02;100.00;99468.22;1376814;89;21251;-80
2023/11/17 09:07:42;;;;;;;11.17;6.03;;;;;;;7.99;100.00;99468.03;1378000;89;21303;-80
2023/11/17 09:10:11;;;;;;;7.63;5.40;;;;;;;7.96;100.00;99457.80;1375478;89;22116;-81
2023/11/17 09:12:45;;;;;;;6.53;4.80;;;;;;;7.96;100.00;99459.13;1377445;90;21391;-80
2023/11/17 09:15:19;;;;;;;7.83;4.70;;;;;;;7.98;100.00;99457.66;1535437;89;21214;-81
2023/11/17 09:17:51;;;;;;;7.67;5.07;;;;;;;7.98;100.00;99457.66;1381935;90;21569;-78
2023/11/17 09:20:17;;;;;;;7.33;4.97;;;;;;;7.98;100.00;99450.58;1375097;90;21331;-80
2023/11/17 09:22:45;;;;;;;11.97;5.30;;;;;;;7.99;100.00;99444.32;1384614;89;22285;-80
2023/11/17 09:25:15;;;;;;;9.20;5.70;;;;;;;8.03;100.00;99447.50;1429641;89;22500;-80
2023/11/17 09:27:46;;;;;;;7.45;4.58;;;;;;;8.00;100.00;99442.05;1451158;90;21376;-81
2023/11/17 09:30:19;;;;;;;8.55;5.65;;;;;;;7.95;100.00;99442.99;1453201;89;21563;-81
2023/11/17 09:32:49;;;;;;;6.30;5.13;;;;;;;7.92;100.00;99439.35;1375269;90;21302;-81
2023/11/17 09:35:17;;;;;;;8.03;5.03;;;;;;;7.88;100.00;99438.84;1535463;89;21200;-81
2023/11/17 09:38:00;;;;;;;8.33;4.70;;;;;;;7.90;100.00;99436.03;1377737;89;21472;-80
2023/11/17 09:40:36;;;;;;;7.70;5.50;;;;;;;7.92;100.00;99435.40;1526584;89;21214;-81
2023/11/17 09:43:22;;;;;;;8.03;4.63;;;;;;;7.92;100.00;99438.03;1450602;89;21346;-80
2023/11/17 09:45:55;;;;;;;6.60;4.03;;;;;;;7.91;100.00;99435.89;1457915;89;21568;-79
2023/11/17 09:48:21;;;;;;;4.70;4.05;;;;;;;7.87;100.00;99425.31;1451011;89;21508;-81
2023/11/17 09:50:55;;;;;;;7.80;5.03;;;;;;;7.85;100.00;99425.12;1447098;90;21471;-80
2023/11/17 09:53:25;;;;;;;7.80;4.83;;;;;;;7.78;100.00;99428.87;1448928;89;21375;-79
2023/11/17 09:55:53;;;;;;;5.33;4.17;;;;;;;7.75;100.00;99421.78;1457327;89;21612;-78
2023/11/17 09:58:24;;;;;;;9.93;3.87;;;;;;;7.75;100.00;99428.36;1446894;90;21397;-79
2023/11/17 10:00:51;;;;;;;5.15;3.40;;;;;;;7.72;100.00;99426.04;1446608;89;22470;-79
2023/11/17 10:03:19;;;;;;;10.67;5.63;;;;;;;7.69;100.00;99424.53;1378729;89;21309;-79
2023/11/17 10:05:47;;;;;;;8.00;4.30;;;;;;;7.68;100.00;99418.45;1377794;90;21336;-79
2023/11/17 10:08:15;;;;;;;8.80;5.57;;;;;;;7.75;100.00;99421.78;1377181;89;22107;-79
2023/11/17 10:10:45;;;;;;;9.17;6.03;;;;;;;7.76;100.00;99416.84;1377473;90;21198;-80
2023/11/17 10:13:14;;;;;;;7.60;4.97;;;;;;;7.80;100.00;99416.88;1375562;90;21428;-78
2023/11/17 10:15:46;;;;;;;6.80;4.57;;;;;;;7.82;100.00;99404.36;1383234;90;21294;-79
2023/11/17 10:18:25;;;;;;;11.57;6.63;;;;;;;7.86;100.00;99405.72;1535419;89;21329;-77
2023/11/17 10:20:53;;;;;;;11.90;7.63;;;;;;;7.86;100.00;99407.86;1535401;89;21258;-82
2023/11/17 10:23:20;;;;;;;14.57;6.17;;;;;;;7.80;100.00;99406.34;1382747;89;22389;-79
2023/11/17 10:25:54;;;;;;;6.57;5.17;;;;;;;7.76;100.00;99400.54;1535397;90;21200;-80
2023/11/17 10:28:21;;;;;;;11.37;5.60;;;;;;;7.74;100.00;99404.30;1529829;89;22117;-79
2023/11/17 10:30:54;;;;;;;12.03;7.20;;;;;;;7.72;100.00;99398.39;1378709;90;21258;-80
2023/11/17 10:33:42;;;;;;;12.17;8.70;;;;;;;7.73;100.00;99403.98;1381566;90;21317;-80
2023/11/17 10:36:11;;;;;;;10.63;7.43;;;;;;;7.71;100.00;99399.34;1535483;89;21155;-79
2023/11/17 10:38:47;;;;;;;7.20;5.50;;;;;;;7.73;100.00;99393.44;1376645;90;21250;-82
2023/11/17 10:41:36;;;;;;;8.33;4.87;;;;;;;7.65;100.00;99385.84;1535472;90;21442;-82
2023/11/17 10:44:02;;;;;;;8.67;5.87;;;;;;;7.62;100.00;99383.52;1382430;90;21408;-81
2023/11/17 10:46:48;;;;;;;10.37;6.83;;;;;;;7.56;100.00;99388.05;1377214;90;21391;-83
2023/11/17 10:49:16;;;;;;;11.00;5.70;;;;;;;7.52;100.00;99393.80;1532606;89;21257;-81
2023/11/17 10:51:47;;;;;;;13.80;7.90;;;;;;;7.48;100.00;99395.91;1546769;89;21280;-83
2023/11/17 10:54:13;;;;;;;10.23;6.37;;;;;;;7.47;100.00;99395.56;1377848;89;21280;-82
2023/11/17 10:56:42;;;;;;;9.67;6.83;;;;;;;7.43;100.00;99385.01;1379354;90;21372;-83
2023/11/17 10:59:19;;;;;;;10.33;7.20;;;;;;;7.44;100.00;99384.02;1382552;89;21294;-83
2023/11/17 11:01:42;;;;;;;9.37;4.93;;;;;;;7.45;100.00;99383.03;1392401;90;21426;-82
2023/11/17 11:04:15;;;;;;;6.67;4.03;;;;;;;7.43;100.00;99379.25;1449713;89;21420;-80
2023/11/17 11:06:40;;;;;;;11.33;4.40;;;;;;;7.39;100.00;99376.59;1377663;89;21450;-84
2023/11/17 11:09:07;;;;;;;9.37;4.43;;;;;;;7.41;100.00;99380.38;1383598;89;21250;-82
2023/11/17 11:11:33;;;;;;;10.07;5.90;;;;;;;7.41;100.00;99377.74;1379404;89;21243;-83
2023/11/17 11:14:01;;;;;;;11.47;6.20;;;;;;;7.44;100.00;99376.12;1379103;90;21229;-81
2023/11/17 11:16:32;;;;;;;12.33;8.43;;;;;;;7.47;100.00;99370.55;1377646;89;21265;-82
2023/11/17 11:19:00;;;;;;;12.73;8.33;;;;;;;7.51;100.00;99372.38;1535755;89;21500;-80
2023/11/17 11:21:29;;;;;;;11.47;6.07;;;;;;;7.52;100.00;99364.84;1376112;89;21527;-80
2023/11/17 11:24:00;;;;;;;8.03;4.37;;;;;;;7.54;100.00;99361.53;1446902;90;21513;-80
2023/11/17 11:26:28;;;;;;;7.40;4.78;;;;;;;7.56;100.00;99363.03;1536374;90;21430;-79
2023/11/17 11:28:56;;;;;;;6.80;4.97;;;;;;;7.59;100.00;99361.41;1377611;89;21265;-82
2023/11/17 11:31:23;;;;;;;7.07;5.50;;;;;;;7.62;100.00;99363.77;1377416;89;21265;-79
2023/11/17 11:33:50;;;;;;;8.07;5.30;;;;;;;7.61;100.00;99359.45;1378643;90;22169;-81
2023/11/17 11:36:18;;;;;;;8.30;4.73;;;;;;;7.63;100.00;99361.45;1378038;90;21409;-82
2023/11/17 11:38:47;;;;;;;7.03;4.60;;;;;;;7.63;100.00;99354.88;1383477;90;21250;-82